Time;durP1;ratioP1;P1;durP2;ratioP2;P2;SDS_P1;SDS_P2;PMS_P1;PMS_P2;Temp;Humidity;BMP_temperature;BMP_pressure;BME280_temperature;BME280_humidity;BME280_pressure;Samples;Min_cycle;Max_cycle;Signal;HPM_P1;HPM_P2
2023/09/25 00:00:49;;;;;;;0.38;0.38;;;13.40;99.90;;;;;;5093777;28;20491;-62
2023/09/25 00:03:15;;;;;;;0.17;0.17;;;13.30;99.90;;;;;;5093359;28;20055;-63
2023/09/25 00:05:41;;;;;;;0.30;0.30;;;13.30;99.90;;;;;;5093637;28;20136;-63
2023/09/25 00:08:07;;;;;;;;;;;13.30;99.90;;;;;;5094060;28;20062;-63
2023/09/25 00:10:33;;;;;;;2.33;1.92;;;13.90;99.90;;;;;;5093573;28;20412;-62
2023/09/25 00:12:59;;;;;;;0.35;0.35;;;13.50;99.90;;;;;;5093505;28;20433;-63
2023/09/25 00:15:25;;;;;;;0.10;0.10;;;13.90;99.90;;;;;;5093429;28;20056;-64
2023/09/25 00:17:51;;;;;;;0.30;0.30;;;13.60;99.90;;;;;;5093399;28;20499;-63
2023/09/25 00:20:20;;;;;;;0.85;0.85;;;13.90;99.90;;;;;;5093340;28;20087;-62
2023/09/25 00:22:46;;;;;;;0.22;0.22;;;13.60;99.90;;;;;;5093258;28;20048;-62
2023/09/25 00:25:12;;;;;;;0.45;0.45;;;13.90;99.90;;;;;;5092203;28;20085;-62
2023/09/25 00:27:38;;;;;;;0.45;0.45;;;13.50;99.90;;;;;;5092882;28;20040;-62
2023/09/25 00:30:08;;;;;;;0.50;0.50;;;13.70;99.90;;;;;;5092137;28;20051;-62
2023/09/25 00:32:35;;;;;;;1.05;0.43;;;13.10;99.90;;;;;;5093249;28;20044;-62
2023/09/25 00:35:01;;;;;;;0.40;0.40;;;13.50;99.90;;;;;;5091815;28;20048;-63
2023/09/25 00:37:27;;;;;;;;;;;13.60;99.90;;;;;;5093468;28;20054;-63
2023/09/25 00:39:53;;;;;;;0.25;0.25;;;13.70;99.90;;;;;;5093020;28;19928;-63
2023/09/25 00:42:18;;;;;;;;;;;13.60;99.90;;;;;;5092966;28;20457;-63
2023/09/25 00:44:44;;;;;;;0.20;0.20;;;13.50;99.90;;;;;;5092905;28;19924;-62
2023/09/25 00:47:09;;;;;;;;;;;13.40;99.90;;;;;;5093492;28;20044;-62
2023/09/25 00:49:36;;;;;;;0.13;0.13;;;13.20;99.90;;;;;;5092804;28;19924;-63
2023/09/25 00:52:02;;;;;;;0.22;0.22;;;13.10;99.90;;;;;;5092752;28;20040;-63
2023/09/25 00:54:31;;;;;;;0.30;0.30;;;13.20;99.90;;;;;;5091582;28;20081;-63
2023/09/25 00:56:57;;;;;;;0.45;0.45;;;13.40;99.90;;;;;;5093049;28;20048;-62
2023/09/25 00:59:25;;;;;;;0.13;0.13;;;13.10;99.90;;;;;;5092697;28;20048;-62
2023/09/25 01:01:51;;;;;;;0.30;0.30;;;13.30;99.90;;;;;;5092319;28;20213;-64
2023/09/25 01:04:17;;;;;;;0.22;0.22;;;14.30;99.90;;;;;;5092543;28;20131;-63
2023/09/25 01:06:43;;;;;;;0.52;0.52;;;13.40;99.90;;;;;;5092510;28;20055;-62
2023/09/25 01:09:09;;;;;;;;;;;13.30;99.90;;;;;;5092827;28;20051;-63
2023/09/25 01:11:35;;;;;;;0.20;0.20;;;13.40;99.90;;;;;;5091336;28;20291;-62
2023/09/25 01:14:00;;;;;;;1.52;1.08;;;13.10;99.90;;;;;;5092295;28;20040;-62
2023/09/25 01:16:26;;;;;;;0.22;0.22;;;13.20;99.90;;;;;;5092269;28;20121;-63
2023/09/25 01:18:52;;;;;;;;;;;13.30;99.90;;;;;;5092647;28;20044;-63
2023/09/25 01:21:17;;;;;;;0.50;0.50;;;12.80;99.90;;;;;;5092171;28;20449;-63
2023/09/25 01:23:43;;;;;;;0.20;0.20;;;12.90;99.90;;;;;;5092049;28;20048;-63
2023/09/25 01:26:09;;;;;;;0.50;0.50;;;13.00;99.90;;;;;;5092107;28;20066;-63
2023/09/25 01:28:35;;;;;;;;;;;13.20;99.90;;;;;;5092602;28;20104;-62
2023/09/25 01:31:00;;;;;;;0.30;0.30;;;13.00;99.90;;;;;;5091991;28;19920;-62
2023/09/25 01:33:26;;;;;;;0.30;0.30;;;12.70;99.90;;;;;;5092001;28;20048;-63
2023/09/25 01:35:52;;;;;;;0.22;0.22;;;13.80;99.90;;;;;;5091896;28;20074;-63
2023/09/25 01:38:18;;;;;;;0.30;0.30;;;12.70;99.90;;;;;;5091691;28;20048;-63
2023/09/25 01:40:43;;;;;;;0.40;0.40;;;13.00;99.90;;;;;;5091945;28;20047;-63
2023/09/25 01:43:09;;;;;;;0.20;0.20;;;12.90;99.90;;;;;;5091539;28;20182;-63
2023/09/25 01:45:35;;;;;;;0.35;0.35;;;13.50;99.90;;;;;;5091862;28;20090;-63
2023/09/25 01:48:00;;;;;;;0.20;0.20;;;12.80;99.90;;;;;;5091842;28;20051;-62
2023/09/25 01:50:28;;;;;;;0.30;0.30;;;12.70;99.90;;;;;;5091828;28;20127;-62
2023/09/25 01:52:59;;;;;;;0.30;0.30;;;12.60;99.90;;;;;;5091798;28;20089;-62
2023/09/25 01:55:30;;;;;;;0.30;0.30;;;12.70;99.90;;;;;;5091817;28;20056;-63
2023/09/25 01:57:56;;;;;;;0.32;0.32;;;12.50;99.90;;;;;;5091759;28;20048;-62
2023/09/25 02:00:21;;;;;;;0.22;0.22;;;12.40;99.90;;;;;;5091501;28;20063;-62
2023/09/25 02:02:47;;;;;;;0.40;0.40;;;12.70;99.90;;;;;;5091223;28;20052;-62
2023/09/25 02:05:13;;;;;;;0.22;0.22;;;12.60;99.90;;;;;;5091667;28;20048;-62
2023/09/25 02:07:39;;;;;;;0.32;0.32;;;12.30;99.90;;;;;;5091408;28;20385;-62
2023/09/25 02:10:06;;;;;;;0.22;0.22;;;12.40;99.90;;;;;;5091405;28;20052;-62
2023/09/25 02:12:32;;;;;;;0.32;0.32;;;12.50;99.90;;;;;;5091785;28;20130;-63
2023/09/25 02:15:02;;;;;;;1.45;0.40;;;12.20;99.90;;;;;;5091906;28;20488;-63
2023/09/25 02:17:29;;;;;;;0.30;0.30;;;13.40;99.90;;;;;;5092146;28;20066;-62
2023/09/25 02:19:56;;;;;;;0.28;0.28;;;12.40;99.90;;;;;;5090598;28;20052;-62
2023/09/25 02:22:22;;;;;;;0.30;0.30;;;12.50;99.90;;;;;;5091486;28;20069;-62
2023/09/25 02:24:47;;;;;;;0.20;0.20;;;12.40;99.90;;;;;;5091435;28;20118;-63
2023/09/25 02:27:14;;;;;;;0.40;0.40;;;12.50;99.90;;;;;;5091457;28;20052;-62
2023/09/25 02:29:39;;;;;;;;;;;12.40;99.90;;;;;;5091847;28;20059;-62
2023/09/25 02:32:05;;;;;;;;;;;12.40;99.90;;;;;;5091802;28;19924;-62
2023/09/25 02:34:30;;;;;;;;;;;12.40;99.90;;;;;;5091789;28;19924;-62
2023/09/25 02:36:56;;;;;;;;;;;12.20;99.90;;;;;;5091789;28;19944;-63
2023/09/25 02:39:21;;;;;;;;;;;12.30;99.90;;;;;;5091845;28;20407;-63
2023/09/25 02:41:47;;;;;;;;;;;12.10;99.90;;;;;;5090399;28;20321;-64
2023/09/25 02:44:12;;;;;;;;;;;12.80;99.90;;;;;;5091454;28;19926;-62
2023/09/25 02:46:38;;;;;;;;;;;12.20;99.90;;;;;;5107496;28;19920;-63
2023/09/25 02:49:04;;;;;;;;;;;13.20;99.90;;;;;;5093425;28;19924;-63
2023/09/25 02:51:29;;;;;;;;;;;12.30;99.90;;;;;;5095735;28;19927;-62
2023/09/25 02:53:55;;;;;;;;;;;12.10;99.90;;;;;;5095480;28;20372;-62
2023/09/25 02:56:21;;;;;;;;;;;12.40;99.90;;;;;;5095435;28;20367;-62
2023/09/25 02:58:47;;;;;;;;;;;12.20;99.90;;;;;;5095395;28;19931;-63
2023/09/25 03:01:12;;;;;;;;;;;12.80;99.90;;;;;;5095345;28;19924;-63
2023/09/25 03:03:39;;;;;;;;;;;12.30;99.90;;;;;;5094760;28;19931;-61
2023/09/25 03:06:04;;;;;;;;;;;12.40;99.90;;;;;;5095318;28;20136;-63
2023/09/25 03:08:30;;;;;;;;;;;12.00;99.90;;;;;;5095261;28;20383;-63
2023/09/25 03:10:55;;;;;;;;;;;12.00;99.90;;;;;;5094971;28;19950;-63
2023/09/25 03:13:21;;;;;;;;;;;12.90;99.90;;;;;;5095146;28;19919;-63
2023/09/25 03:15:47;;;;;;;;;;;12.10;99.90;;;;;;5095171;28;19923;-63
2023/09/25 03:18:12;;;;;;;;;;;12.00;99.90;;;;;;5094242;28;19982;-65
2023/09/25 03:20:41;;;;;;;;;;;12.00;99.90;;;;;;5095572;28;19920;-63
2023/09/25 03:23:06;;;;;;;;;;;12.10;99.90;;;;;;5095111;28;19920;-63
2023/09/25 03:25:35;;;;;;;;;;;12.20;99.90;;;;;;5094896;28;20018;-63
2023/09/25 03:28:01;;;;;;;;;;;11.90;99.90;;;;;;5094525;28;20387;-62
2023/09/25 03:30:28;;;;;;;;;;;12.00;99.90;;;;;;5094851;28;19924;-63
2023/09/25 03:32:54;;;;;;;;;;;11.90;99.90;;;;;;5094739;28;19919;-62
2023/09/25 03:35:20;;;;;;;;;;;11.80;99.90;;;;;;5094764;28;19924;-62
2023/09/25 03:37:46;;;;;;;;;;;11.80;99.90;;;;;;5094692;28;19927;-62
2023/09/25 03:40:12;;;;;;;;;;;12.00;99.90;;;;;;5094599;28;20269;-62
2023/09/25 03:42:38;;;;;;;;;;;12.10;99.90;;;;;;5094555;28;19979;-62
2023/09/25 03:45:04;;;;;;;;;;;12.10;99.90;;;;;;5094539;28;19977;-62
2023/09/25 03:47:30;;;;;;;;;;;12.00;99.90;;;;;;5094469;28;19973;-62
2023/09/25 03:49:55;;;;;;;;;;;11.90;99.90;;;;;;5094667;28;19928;-63
2023/09/25 03:52:21;;;;;;;;;;;12.20;99.90;;;;;;5094392;28;19927;-63
2023/09/25 03:54:47;;;;;;;;;;;12.10;99.90;;;;;;5093990;28;19927;-62
2023/09/25 03:57:13;;;;;;;;;;;12.10;99.90;;;;;;5094280;28;20003;-62
2023/09/25 03:59:38;;;;;;;;;;;12.00;99.90;;;;;;5094132;28;19974;-63
2023/09/25 04:02:04;;;;;;;;;;;12.20;99.90;;;;;;5094082;28;20012;-62
2023/09/25 04:04:29;;;;;;;;;;;12.20;99.90;;;;;;5094004;28;19931;-63
2023/09/25 04:06:55;;;;;;;;;;;11.90;99.90;;;;;;5094165;28;19924;-63
2023/09/25 04:09:20;;;;;;;;;;;11.80;99.90;;;;;;5094000;28;19990;-62
2023/09/25 04:11:46;;;;;;;;;;;11.80;99.90;;;;;;5093957;28;19927;-62
2023/09/25 04:14:11;;;;;;;;;;;12.20;99.90;;;;;;5093885;28;19923;-61
2023/09/25 04:16:38;;;;;;;;;;;12.00;99.90;;;;;;5093905;28;19931;-63
2023/09/25 04:19:04;;;;;;;;;;;12.30;99.90;;;;;;5093545;28;19920;-62
2023/09/25 04:21:31;;;;;;;;;;;11.90;99.90;;;;;;5093745;28;19924;-61
2023/09/25 04:23:57;;;;;;;;;;;12.30;99.90;;;;;;5093751;28;20053;-62
2023/09/25 04:26:23;;;;;;;;;;;12.50;99.90;;;;;;5093646;28;19932;-64
2023/09/25 04:28:49;;;;;;;;;;;11.90;99.90;;;;;;5093601;28;20013;-62
2023/09/25 04:31:14;;;;;;;;;;;11.90;99.90;;;;;;5093612;28;20379;-62
2023/09/25 04:33:40;;;;;;;;;;;11.90;99.90;;;;;;5093418;28;19931;-62
2023/09/25 04:36:10;;;;;;;;;;;12.20;99.90;;;;;;5093506;28;19930;-63
2023/09/25 04:38:36;;;;;;;;;;;11.90;99.90;;;;;;5093502;28;19924;-62
2023/09/25 04:41:01;;;;;;;;;;;11.80;99.90;;;;;;5093529;28;19927;-62
2023/09/25 04:43:27;;;;;;;;;;;11.80;99.90;;;;;;5093601;28;19920;-62
2023/09/25 04:45:55;;;;;;;;;;;11.90;99.90;;;;;;5093774;28;20319;-62
2023/09/25 04:48:21;;;;;;;;;;;11.80;99.90;;;;;;5093316;28;19919;-62
2023/09/25 04:50:46;;;;;;;;;;;12.70;99.90;;;;;;5093263;28;19930;-62
2023/09/25 04:53:12;;;;;;;;;;;11.90;99.90;;;;;;5093109;28;19920;-62
2023/09/25 04:55:38;;;;;;;;;;;12.00;99.90;;;;;;5093032;28;19920;-62
2023/09/25 04:58:04;;;;;;;;;;;12.20;99.90;;;;;;5093115;28;20020;-62
2023/09/25 05:00:32;;;;;;;;;;;12.00;99.90;;;;;;5092982;28;20019;-62
2023/09/25 05:02:58;;;;;;;;;;;12.80;99.90;;;;;;5092711;28;20003;-62
2023/09/25 05:05:24;;;;;;;;;;;12.10;99.90;;;;;;5092623;28;20048;-63
2023/09/25 05:07:51;;;;;;;;;;;11.60;99.90;;;;;;5092875;28;19939;-63
2023/09/25 05:10:18;;;;;;;;;;;11.90;99.90;;;;;;5092904;28;19924;-62
2023/09/25 05:12:44;;;;;;;;;;;11.90;99.90;;;;;;5092376;28;19974;-63
2023/09/25 05:15:11;;;;;;;;;;;11.80;99.90;;;;;;5092841;28;19975;-62
2023/09/25 05:17:37;;;;;;;;;;;12.00;99.90;;;;;;5092755;28;19990;-63
2023/09/25 05:20:10;;;;;;;;;;;12.40;99.90;;;;;;5108639;28;19920;-62
2023/09/25 05:22:39;;;;;;;;;;;11.90;99.90;;;;;;5092714;28;19924;-63
2023/09/25 05:25:07;;;;;;;;;;;12.10;99.90;;;;;;5092894;28;19928;-62
2023/09/25 05:27:34;;;;;;;;;;;12.10;99.90;;;;;;5092592;28;20268;-63
2023/09/25 05:30:00;;;;;;;;;;;12.10;99.90;;;;;;5092553;28;19923;-63
2023/09/25 05:32:25;;;;;;;;;;;12.40;99.90;;;;;;5092462;28;20372;-62
2023/09/25 05:34:51;;;;;;;;;;;11.90;99.90;;;;;;5092448;28;19923;-62
2023/09/25 05:37:16;;;;;;;;;;;11.90;99.90;;;;;;5092470;28;19977;-62
2023/09/25 05:39:42;;;;;;;;;;;12.00;99.90;;;;;;5092401;28;19930;-63
2023/09/25 05:42:07;;;;;;;;;;;12.00;99.90;;;;;;5092261;28;20402;-62
2023/09/25 05:44:33;;;;;;;;;;;12.00;99.90;;;;;;5092317;28;19923;-63
2023/09/25 05:46:58;;;;;;;;;;;12.30;99.90;;;;;;5092316;28;20386;-63
2023/09/25 05:49:25;;;;;;;;;;;12.30;99.90;;;;;;5092226;28;20325;-62
2023/09/25 05:51:53;;;;;;;;;;;12.30;99.90;;;;;;5092345;28;19920;-63
2023/09/25 05:54:19;;;;;;;;;;;12.30;99.90;;;;;;5092193;28;20007;-63
2023/09/25 05:56:45;;;;;;;;;;;12.20;99.90;;;;;;5092141;28;20399;-63
2023/09/25 05:59:11;;;;;;;;;;;12.20;99.90;;;;;;5092169;28;19920;-62
2023/09/25 06:01:37;;;;;;;;;;;12.90;99.90;;;;;;5091732;28;20429;-62
2023/09/25 06:04:03;;;;;;;;;;;12.20;99.90;;;;;;5091706;28;19963;-62
2023/09/25 06:06:28;;;;;;;;;;;12.00;99.90;;;;;;5092105;28;19977;-63
2023/09/25 06:08:54;;;;;;;;;;;12.40;99.90;;;;;;5092109;28;19975;-62
2023/09/25 06:11:19;;;;;;;;;;;12.10;99.90;;;;;;5092050;28;20379;-63
2023/09/25 06:13:45;;;;;;;;;;;12.20;99.90;;;;;;5090783;28;19951;-63
2023/09/25 06:16:12;;;;;;;;;;;12.30;99.90;;;;;;5092059;28;20048;-62
2023/09/25 06:18:38;;;;;;;;;;;12.20;99.90;;;;;;5092147;28;19920;-62
2023/09/25 06:21:03;;;;;;;;;;;13.40;99.90;;;;;;5092160;28;19924;-62
2023/09/25 06:23:30;;;;;;;;;;;12.50;99.90;;;;;;5093019;28;20000;-64
2023/09/25 06:25:56;;;;;;;;;;;12.80;99.90;;;;;;5095948;28;20014;-62
2023/09/25 06:28:24;;;;;;;;;;;12.60;99.90;;;;;;5094701;28;20427;-62
2023/09/25 06:30:49;;;;;;;;;;;12.80;99.90;;;;;;5096131;28;20009;-63
2023/09/25 06:33:15;;;;;;;;;;;13.40;99.90;;;;;;5095659;28;19978;-63
2023/09/25 06:35:41;;;;;;;;;;;12.40;99.90;;;;;;5095640;28;19945;-62
2023/09/25 06:38:08;;;;;;;;;;;12.80;99.90;;;;;;5096021;28;20046;-62
2023/09/25 06:40:34;;;;;;;;;;;13.70;99.90;;;;;;5096031;28;20033;-62
2023/09/25 06:42:59;;;;;;;;;;;13.10;99.90;;;;;;5095748;28;19927;-62
2023/09/25 06:45:25;;;;;;;;;;;13.10;99.90;;;;;;5095722;28;19928;-63
2023/09/25 06:47:50;;;;;;;;;;;13.00;99.90;;;;;;5095804;28;19923;-63
2023/09/25 06:50:17;;;;;;;;;;;13.10;99.90;;;;;;5094470;28;19924;-62
2023/09/25 06:52:42;;;;;;;;;;;13.00;99.90;;;;;;5095329;28;19920;-62
2023/09/25 06:55:09;;;;;;;;;;;13.30;99.90;;;;;;5095703;28;19920;-62
2023/09/25 06:57:34;;;;;;;;;;;13.10;99.90;;;;;;5095618;28;19959;-62
2023/09/25 07:00:00;;;;;;;;;;;13.20;99.90;;;;;;5095155;28;19967;-62
2023/09/25 07:02:25;;;;;;;;;;;13.20;99.90;;;;;;5095279;28;19924;-64
2023/09/25 07:04:51;;;;;;;;;;;13.40;99.90;;;;;;5094825;28;19931;-63
2023/09/25 07:07:16;;;;;;;;;;;13.60;99.90;;;;;;5095299;28;19974;-63
2023/09/25 07:09:42;;;;;;;;;;;13.70;99.90;;;;;;5095246;28;19981;-63
2023/09/25 07:12:08;;;;;;;;;;;13.40;99.90;;;;;;5095151;28;19927;-62
2023/09/25 07:14:34;;;;;;;;;;;13.40;99.90;;;;;;5094833;28;20283;-68
2023/09/25 07:16:59;;;;;;;;;;;13.50;99.90;;;;;;5089232;28;19923;-62
2023/09/25 07:19:25;;;;;;;;;;;13.10;99.90;;;;;;5094357;28;20364;-62
2023/09/25 07:21:50;;;;;;;;;;;13.50;99.90;;;;;;5112873;28;20614;-64
2023/09/25 07:24:16;;;;;;;;;;;13.50;99.90;;;;;;5097436;28;19985;-63
2023/09/25 07:26:43;;;;;;;;;;;14.00;99.90;;;;;;5092882;28;19946;-63
2023/09/25 07:29:10;;;;;;;;;;;13.80;99.90;;;;;;5094368;28;19931;-63
2023/09/25 07:31:35;;;;;;;;;;;13.80;99.90;;;;;;5093614;28;19923;-62
2023/09/25 07:34:01;;;;;;;;;;;14.10;99.90;;;;;;5093671;28;19924;-63
2023/09/25 07:36:26;;;;;;;;;;;14.30;99.90;;;;;;5094017;28;19924;-63
2023/09/25 07:38:52;;;;;;;;;;;14.20;99.90;;;;;;5093605;28;19947;-63
2023/09/25 07:41:18;;;;;;;;;;;14.10;99.90;;;;;;5094102;28;19972;-63
2023/09/25 07:43:44;;;;;;;;;;;13.80;99.90;;;;;;5093962;28;19924;-63
2023/09/25 07:46:10;;;;;;;;;;;14.00;99.90;;;;;;5093216;28;20371;-62
2023/09/25 07:48:37;;;;;;;;;;;14.10;99.90;;;;;;5092955;28;19924;-63
2023/09/25 07:51:07;;;;;;;;;;;14.20;99.90;;;;;;5093273;28;19927;-63
2023/09/25 07:53:33;;;;;;;;;;;13.80;99.90;;;;;;5093336;28;20018;-63
2023/09/25 07:55:59;;;;;;;;;;;14.10;99.90;;;;;;5093782;28;19920;-62
2023/09/25 07:58:27;;;;;;;;;;;14.00;99.90;;;;;;5093731;28;19950;-63
2023/09/25 08:00:55;;;;;;;;;;;13.90;99.90;;;;;;5092836;28;19923;-63
2023/09/25 08:03:22;;;;;;;;;;;13.80;99.90;;;;;;5093444;28;19931;-63
2023/09/25 08:05:47;;;;;;;;;;;14.10;99.90;;;;;;5093640;28;20012;-65
2023/09/25 08:08:13;;;;;;;;;;;14.10;99.90;;;;;;5092866;28;19963;-62
2023/09/25 08:10:44;;;;;;;;;;;13.70;99.90;;;;;;5087468;28;19924;-63
2023/09/25 08:13:10;;;;;;;;;;;14.10;99.90;;;;;;5091966;28;19980;-63
2023/09/25 08:15:36;;;;;;;;;;;14.50;99.90;;;;;;5109824;28;19924;-62
2023/09/25 08:18:02;;;;;;;;;;;14.50;99.90;;;;;;5113396;28;19930;-64
2023/09/25 08:20:28;;;;;;;;;;;14.40;99.90;;;;;;5112184;28;19920;-62
2023/09/25 08:22:54;;;;;;;;;;;14.80;99.90;;;;;;5112842;28;19977;-62
2023/09/25 08:25:20;;;;;;;;;;;14.60;99.90;;;;;;5113345;28;20021;-62
2023/09/25 08:27:45;;;;;;;;;;;14.90;99.90;;;;;;5113639;28;19949;-62
2023/09/25 08:30:12;;;;;;;;;;;15.20;99.90;;;;;;5113534;28;19923;-63
2023/09/25 08:32:37;;;;;;;;;;;14.70;99.90;;;;;;5113874;28;19920;-64
2023/09/25 08:35:03;;;;;;;;;;;14.80;99.90;;;;;;5113758;28;19926;-63
2023/09/25 08:37:29;;;;;;;;;;;14.90;99.90;;;;;;5113644;28;20042;-61
2023/09/25 08:39:55;;;;;;;;;;;14.80;99.90;;;;;;5102542;28;20054;-63
2023/09/25 08:42:22;;;;;;;;;;;15.10;99.90;;;;;;5071856;28;20272;-61
2023/09/25 08:44:51;;;;;;;;;;;15.30;99.90;;;;;;5081382;28;19924;-64
2023/09/25 08:47:20;;;;;;;;;;;15.20;99.90;;;;;;5091908;28;20044;-64
2023/09/25 08:49:49;;;;;;;;;;;15.30;99.90;;;;;;5077950;28;20015;-62
2023/09/25 08:52:24;;;;;;;;;;;15.40;99.90;;;;;;5072221;28;20350;-64
2023/09/25 08:54:50;;;;;;;;;;;15.40;99.90;;;;;;5071108;28;20329;-63
2023/09/25 08:57:16;;;;;;;;;;;15.60;99.90;;;;;;5071577;28;20287;-62
2023/09/25 08:59:46;;;;;;;;;;;15.60;99.90;;;;;;5072138;28;19924;-63
2023/09/25 09:02:12;;;;;;;;;;;15.80;99.90;;;;;;5072187;28;19921;-61
2023/09/25 09:04:37;;;;;;;;;;;16.10;99.90;;;;;;5071583;28;19925;-61
2023/09/25 09:07:08;;;;;;;;;;;16.30;99.90;;;;;;5071856;28;20434;-60
2023/09/25 09:09:34;;;;;;;;;;;16.00;99.90;;;;;;5072204;28;19931;-62
2023/09/25 09:12:00;;;;;;;;;;;16.30;99.90;;;;;;5086741;28;19975;-63
2023/09/25 09:14:42;;;;;;;;;;;16.20;99.90;;;;;;5092376;28;19930;-63
2023/09/25 09:17:09;;;;;;;;;;;16.40;99.90;;;;;;5092218;28;20014;-63
2023/09/25 09:19:43;;;;;;;;;;;16.40;99.90;;;;;;5091769;28;20073;-64
2023/09/25 09:22:09;;;;;;;;;;;16.70;99.90;;;;;;5089956;28;19974;-63
2023/09/25 09:24:38;;;;;;;;;;;17.10;99.90;;;;;;5086568;28;19967;-64
2023/09/25 09:27:07;;;;;;;;;;;16.80;99.90;;;;;;5090500;28;19920;-62
2023/09/25 09:29:36;;;;;;;;;;;17.00;99.90;;;;;;5091973;28;19927;-64
2023/09/25 09:32:02;;;;;;;;;;;17.00;99.90;;;;;;5091350;28;19924;-63
2023/09/25 09:34:28;;;;;;;;;;;17.40;99.90;;;;;;5091743;28;19924;-63
2023/09/25 09:36:53;;;;;;;;;;;17.10;99.90;;;;;;5091710;28;19962;-62
2023/09/25 09:39:21;;;;;;;;;;;17.30;99.90;;;;;;5090957;28;19920;-62
2023/09/25 09:41:48;;;;;;;;;;;17.70;99.90;;;;;;5091698;28;19927;-62
2023/09/25 09:44:14;;;;;;;;;;;17.30;99.90;;;;;;5091629;28;19990;-62
2023/09/25 09:46:41;;;;;;;;;;;17.80;99.90;;;;;;5090932;28;19924;-63
2023/09/25 09:49:08;;;;;;;;;;;17.60;99.90;;;;;;5091533;28;19924;-62
2023/09/25 09:51:34;;;;;;;;;;;18.00;99.90;;;;;;5091577;28;19973;-62
2023/09/25 09:54:02;;;;;;;;;;;17.70;99.90;;;;;;5090026;28;19965;-62
2023/09/25 09:56:28;;;;;;;;;;;18.00;99.90;;;;;;5091466;28;20249;-62
2023/09/25 09:58:54;;;;;;;;;;;18.10;99.90;;;;;;5091537;28;20007;-62
2023/09/25 10:01:20;;;;;;;;;;;18.10;99.90;;;;;;5090016;28;19924;-63
2023/09/25 10:03:46;;;;;;;;;;;18.10;99.90;;;;;;5090466;28;19920;-63
2023/09/25 10:06:12;;;;;;;;;;;17.80;99.90;;;;;;5091551;28;19924;-62
2023/09/25 10:08:38;;;;;;;;;;;18.00;99.90;;;;;;5091941;28;19928;-64
2023/09/25 10:11:13;;;;;;;;;;;18.00;99.90;;;;;;5092133;28;19920;-61
2023/09/25 10:13:39;;;;;;;;;;;18.10;99.90;;;;;;5091759;28;19950;-63
2023/09/25 10:16:04;;;;;;;;;;;18.00;99.90;;;;;;5086076;28;19946;-62
2023/09/25 10:18:30;;;;;;;;;;;18.00;99.90;;;;;;5091316;28;19924;-63
2023/09/25 10:21:08;;;;;;;;;;;18.50;99.90;;;;;;5091331;28;19919;-62
2023/09/25 10:23:34;;;;;;;;;;;18.30;99.90;;;;;;5090858;28;19924;-61
2023/09/25 10:26:03;;;;;;;;;;;18.20;99.90;;;;;;5091432;28;19950;-61
2023/09/25 10:28:33;;;;;;;;;;;18.30;99.90;;;;;;5091433;28;19927;-63
2023/09/25 10:30:59;;;;;;;;;;;18.00;99.90;;;;;;5090526;28;19959;-63
2023/09/25 10:33:29;;;;;;;;;;;18.40;99.90;;;;;;5091129;28;20328;-62
2023/09/25 10:36:01;;;;;;;;;;;18.50;99.90;;;;;;5086360;28;20735;-63
2023/09/25 10:38:28;;;;;;;;;;;18.70;99.90;;;;;;5090901;28;19978;-62
2023/09/25 10:40:55;;;;;;;;;;;18.40;99.90;;;;;;5090806;28;20388;-65
2023/09/25 10:43:22;;;;;;;;;;;18.50;99.90;;;;;;5090780;28;20023;-62
2023/09/25 10:45:48;;;;;;;;;;;18.80;99.90;;;;;;5090962;28;19973;-62
2023/09/25 10:48:14;;;;;;;;;;;18.80;99.90;;;;;;5091213;28;19998;-63
2023/09/25 10:50:40;;;;;;;;;;;19.00;99.90;;;;;;5090270;28;20394;-63
2023/09/25 10:53:09;;;;;;;;;;;18.80;99.90;;;;;;5091056;28;19920;-62
2023/09/25 10:55:35;;;;;;;;;;;18.80;99.90;;;;;;5090869;28;19935;-63
2023/09/25 10:58:04;;;;;;;;;;;18.70;99.90;;;;;;5090420;28;20713;-63
2023/09/25 11:00:32;;;;;;;;;;;19.00;99.90;;;;;;5090717;28;20411;-67
2023/09/25 11:03:02;;;;;;;;;;;18.90;99.90;;;;;;5090760;28;19920;-62
2023/09/25 11:05:32;;;;;;;;;;;19.40;99.90;;;;;;5090308;28;19924;-63
2023/09/25 11:07:58;;;;;;;;;;;19.20;99.90;;;;;;5090908;28;19924;-62
2023/09/25 11:10:31;;;;;;;;;;;19.30;99.90;;;;;;5092750;28;19924;-62
2023/09/25 11:12:57;;;;;;;;;;;19.60;99.90;;;;;;5086535;28;20299;-64
2023/09/25 11:15:25;;;;;;;;;;;19.00;99.90;;;;;;5109401;28;19920;-63
2023/09/25 11:17:51;;;;;;;;;;;19.20;99.90;;;;;;5114764;28;19930;-64
2023/09/25 11:20:19;;;;;;;;;;;19.40;99.90;;;;;;5113289;28;20234;-64
2023/09/25 11:22:46;;;;;;;;;;;19.20;99.90;;;;;;5114489;28;20318;-63
2023/09/25 11:25:15;;;;;;;;;;;19.70;99.90;;;;;;5113877;28;19920;-64
2023/09/25 11:27:50;;;;;;;;;;;19.30;99.90;;;;;;5129390;27;20393;-64
2023/09/25 11:30:16;;;;;;;;;;;19.70;99.90;;;;;;5113760;28;19930;-66
2023/09/25 11:32:42;;;;;;;;;;;19.30;99.90;;;;;;5114177;28;20006;-65
2023/09/25 11:35:12;;;;;;;;;;;19.70;99.90;;;;;;5114226;28;19927;-65
2023/09/25 11:37:53;;;;;;;;;;;19.30;99.90;;;;;;5105765;28;19968;-64
2023/09/25 11:40:19;;;;;;;;;;;19.60;99.90;;;;;;5082810;28;19925;-64
2023/09/25 11:42:45;;;;;;;;;;;19.90;99.90;;;;;;5084110;28;19931;-65
2023/09/25 11:45:12;;;;;;;;;;;20.20;99.90;;;;;;5093820;28;19924;-64
2023/09/25 11:47:37;;;;;;;;;;;19.80;99.90;;;;;;5093769;28;20379;-66
2023/09/25 11:50:03;;;;;;;;;;;20.00;99.90;;;;;;5082081;28;19928;-64
2023/09/25 11:52:29;;;;;;;;;;;20.10;99.90;;;;;;5073640;28;20011;-66
2023/09/25 11:54:55;;;;;;;;;;;20.00;99.90;;;;;;5083699;28;19928;-63
2023/09/25 11:57:20;;;;;;;;;;;19.70;99.90;;;;;;5093596;28;20018;-65
2023/09/25 11:59:47;;;;;;;;;;;20.30;99.90;;;;;;5094049;28;19946;-63
2023/09/25 12:02:13;;;;;;;;;;;19.90;99.90;;;;;;5093242;28;19926;-63
2023/09/25 12:04:39;;;;;;;;;;;20.30;99.90;;;;;;5094316;28;20027;-63
2023/09/25 12:07:05;;;;;;;;;;;20.30;99.90;;;;;;5094173;28;19923;-63
2023/09/25 12:09:31;;;;;;;;;;;20.30;99.90;;;;;;5094135;28;20375;-63
2023/09/25 12:11:56;;;;;;;;;;;20.40;99.90;;;;;;5094068;28;20367;-64
2023/09/25 12:14:22;;;;;;;;;;;19.70;99.90;;;;;;5093961;28;19923;-62
2023/09/25 12:16:47;;;;;;;;;;;20.20;99.90;;;;;;5093956;28;20317;-65
2023/09/25 12:19:14;;;;;;;;;;;19.80;99.90;;;;;;5093977;28;19920;-64
2023/09/25 12:21:39;;;;;;;;;;;20.40;99.90;;;;;;5094139;28;19924;-65
2023/09/25 12:24:05;;;;;;;;;;;20.10;99.90;;;;;;5085365;28;20258;-64
2023/09/25 12:26:32;;;;;;;;;;;20.30;99.90;;;;;;5073127;28;19931;-63
2023/09/25 12:28:58;;;;;;;;;;;20.70;99.90;;;;;;5084527;28;19925;-64
2023/09/25 12:31:23;;;;;;;;;;;21.00;99.90;;;;;;5093537;28;19924;-64
2023/09/25 12:33:49;;;;;;;;;;;21.10;99.90;;;;;;5093616;28;19920;-64
2023/09/25 12:36:15;;;;;;;;;;;21.10;99.90;;;;;;5076449;28;19928;-66
2023/09/25 12:38:41;;;;;;;;;;;21.40;99.90;;;;;;5073093;28;20369;-64
2023/09/25 12:41:07;;;;;;;;;;;21.30;99.90;;;;;;5092331;28;20058;-64
2023/09/25 12:43:33;;;;;;;;;;;21.60;99.90;;;;;;5092924;28;19973;-62
2023/09/25 12:45:58;;;;;;;;;;;21.90;99.90;;;;;;5092976;28;19939;-62
2023/09/25 12:48:25;;;;;;;;;;;21.30;99.90;;;;;;5093093;28;20422;-62
2023/09/25 12:50:50;;;;;;;;;;;21.40;99.90;;;;;;5093063;28;19920;-62
2023/09/25 12:53:17;;;;;;;;;;;21.50;99.90;;;;;;5093047;28;19924;-63
2023/09/25 12:55:43;;;;;;;;;;;21.60;99.90;;;;;;5092755;28;20379;-62
2023/09/25 12:58:09;;;;;;;;;;;21.80;99.90;;;;;;5092537;28;20447;-64
2023/09/25 13:00:35;;;;;;;;;;;21.60;99.90;;;;;;5092865;28;20031;-61
2023/09/25 13:03:00;;;;;;;;;;;21.90;99.90;;;;;;5092576;28;19920;-62
2023/09/25 13:05:26;;;;;;;;;;;21.70;99.90;;;;;;5092903;28;20003;-61
2023/09/25 13:07:52;;;;;;;;;;;21.90;99.90;;;;;;5092706;28;19997;-60
2023/09/25 13:10:18;;;;;;;;;;;22.20;99.90;;;;;;5092730;28;20359;-62
2023/09/25 13:12:43;;;;;;;;;;;22.20;99.90;;;;;;5087019;28;19959;-63
2023/09/25 13:15:10;;;;;;;;;;;22.30;99.90;;;;;;5092043;28;19920;-62
2023/09/25 13:17:36;;;;;;;;;;;22.00;99.90;;;;;;5091836;28;20295;-63
2023/09/25 13:20:07;;;;;;;;;;;22.40;99.90;;;;;;5085927;28;19923;-63
2023/09/25 13:22:36;;;;;;;;;;;22.50;99.90;;;;;;5099963;28;19926;-65
2023/09/25 13:25:01;;;;;;;;;;;22.40;99.90;;;;;;5112761;28;19920;-65
2023/09/25 13:27:27;;;;;;;;;;;22.60;99.90;;;;;;5112553;28;20351;-65
2023/09/25 13:29:52;;;;;;;;;;;22.50;99.90;;;;;;5100910;28;20473;-65
2023/09/25 13:32:18;;;;;;;;;;;22.60;99.90;;;;;;5096577;28;19924;-62
2023/09/25 13:34:43;;;;;;;;;;;23.00;99.90;;;;;;5111738;28;19924;-64
2023/09/25 13:37:09;;;;;;;;;;;23.10;99.90;;;;;;5098344;28;19927;-65
2023/09/25 13:39:34;;;;;;;;;;;22.90;99.90;;;;;;5090452;28;19935;-69
2023/09/25 13:42:00;;;;;;;;;;;22.90;99.90;;;;;;5089589;28;19974;-63
2023/09/25 13:44:26;;;;;;;;;;;23.20;99.90;;;;;;5091377;28;19924;-64
2023/09/25 13:46:54;;;;;;;;;;;23.20;99.90;;;;;;5091988;28;19924;-63
2023/09/25 13:49:20;;;;;;;;;;;22.90;99.90;;;;;;5091626;28;20018;-63
2023/09/25 13:51:47;;;;;;;;;;;23.60;99.90;;;;;;5091778;28;19924;-64
2023/09/25 13:54:13;;;;;;;;;;;23.80;99.90;;;;;;5091729;28;19955;-62
2023/09/25 13:56:39;;;;;;;;;;;23.90;99.90;;;;;;5091412;28;20380;-63